createdAt,value
2022-11-16T00:00:49.593Z,9.1
2022-11-16T00:05:49.585Z,9
2022-11-16T00:10:49.611Z,9
2022-11-16T00:15:49.619Z,9
2022-11-16T00:20:49.597Z,8.9
2022-11-16T00:25:49.593Z,8.9
2022-11-16T00:30:49.583Z,8.9
2022-11-16T00:35:49.623Z,8.9
2022-11-16T00:40:49.591Z,8.8
2022-11-16T00:45:49.592Z,8.8
2022-11-16T00:50:49.594Z,8.8
2022-11-16T00:55:49.612Z,8.7
2022-11-16T01:00:49.691Z,8.7
2022-11-16T01:05:49.664Z,8.6
2022-11-16T01:10:49.584Z,8.6
2022-11-16T01:15:49.762Z,8.6
2022-11-16T01:20:49.598Z,8.6
2022-11-16T01:25:49.578Z,8.6
2022-11-16T01:30:49.583Z,8.5
2022-11-16T01:35:49.611Z,8.5
2022-11-16T01:40:49.573Z,8.4
2022-11-16T01:45:49.584Z,8.4
2022-11-16T01:50:49.575Z,8.4
2022-11-16T01:55:49.607Z,8.4
2022-11-16T02:00:49.663Z,8.4
2022-11-16T02:05:49.585Z,8.4
2022-11-16T02:10:49.577Z,8.4
2022-11-16T02:15:49.588Z,8.3
2022-11-16T02:20:49.571Z,8.3
2022-11-16T02:25:49.583Z,8.3
2022-11-16T02:30:49.564Z,8.3
2022-11-16T02:35:49.594Z,8.3
2022-11-16T02:40:49.564Z,8.3
2022-11-16T02:45:49.577Z,8.3
2022-11-16T02:50:49.557Z,8.3
2022-11-16T02:55:49.587Z,8.3
2022-11-16T03:00:49.620Z,8.3
2022-11-16T03:05:49.563Z,8.3
2022-11-16T03:10:49.548Z,8.2
2022-11-16T03:15:49.590Z,8.2
2022-11-16T03:20:49.556Z,8.2
2022-11-16T03:25:49.560Z,8.2
2022-11-16T03:30:49.549Z,8.2
2022-11-16T03:35:49.574Z,8.1
2022-11-16T03:40:49.540Z,8.1
2022-11-16T03:45:49.547Z,8.1
2022-11-16T03:50:49.555Z,8.1
2022-11-16T03:55:50.019Z,8.1
2022-11-16T04:00:49.713Z,8.1
2022-11-16T04:05:49.544Z,8.1
2022-11-16T04:10:49.548Z,8.1
2022-11-16T04:15:49.577Z,8
2022-11-16T04:20:49.532Z,8
2022-11-16T04:25:49.633Z,8
2022-11-16T04:30:49.531Z,8
2022-11-16T04:35:49.555Z,8
2022-11-16T04:40:49.543Z,7.9
2022-11-16T04:45:49.529Z,7.9
2022-11-16T04:50:49.533Z,7.9
2022-11-16T04:55:49.567Z,7.9
2022-11-16T05:00:49.533Z,7.9
2022-11-16T05:05:49.534Z,7.9
2022-11-16T05:10:49.543Z,7.9
2022-11-16T05:15:49.544Z,7.9
2022-11-16T05:20:49.533Z,7.9
2022-11-16T05:25:49.517Z,7.9
2022-11-16T05:30:49.530Z,8
2022-11-16T05:35:49.818Z,8
2022-11-16T05:40:49.532Z,8
2022-11-16T05:45:49.531Z,8
2022-11-16T05:50:49.517Z,8
2022-11-16T05:55:49.578Z,8
2022-11-16T06:00:49.532Z,8
2022-11-16T06:05:49.574Z,8
2022-11-16T06:10:49.519Z,8
2022-11-16T06:15:49.531Z,8.1
2022-11-16T06:20:49.858Z,8.1
2022-11-16T06:25:49.519Z,8.1
2022-11-16T06:30:49.520Z,8.1
2022-11-16T06:35:49.742Z,8.1
2022-11-16T06:40:49.538Z,8.1
2022-11-16T06:45:49.522Z,8.1
2022-11-16T06:50:49.509Z,8.1
2022-11-16T06:55:49.509Z,8.1
2022-11-16T07:00:49.651Z,8.1
2022-11-16T07:05:49.514Z,8.2
2022-11-16T07:10:49.510Z,8.2
2022-11-16T07:15:49.506Z,8.2
2022-11-16T07:20:49.541Z,8.2
2022-11-16T07:25:49.518Z,8.3
2022-11-16T07:30:49.512Z,8.3
2022-11-16T07:35:49.516Z,8.3
2022-11-16T07:40:49.627Z,8.3
2022-11-16T07:45:49.519Z,8.3
2022-11-16T07:50:49.482Z,8.3
2022-11-16T07:55:49.492Z,8.3
2022-11-16T08:00:49.614Z,8.4
2022-11-16T08:05:49.486Z,8.4
2022-11-16T08:10:49.481Z,8.4
2022-11-16T08:15:49.499Z,8.4
2022-11-16T08:20:49.498Z,8.4
2022-11-16T08:25:49.475Z,8.4
2022-11-16T08:30:53.545Z,8.4
2022-11-16T08:35:49.478Z,8.4
2022-11-16T08:40:49.588Z,8.4
2022-11-16T08:45:49.497Z,8.4
2022-11-16T08:51:15.742Z,8.4
2022-11-16T08:55:49.484Z,8.5
2022-11-16T09:00:49.582Z,8.5
2022-11-16T09:05:49.473Z,8.5
2022-11-16T09:10:49.472Z,8.5
2022-11-16T09:15:49.558Z,8.5
2022-11-16T09:20:49.483Z,8.5
2022-11-16T09:25:49.464Z,8.6
2022-11-16T09:30:49.581Z,8.6
2022-11-16T09:35:49.466Z,8.6
2022-11-16T09:40:49.540Z,8.6
2022-11-16T09:45:49.486Z,8.6
2022-11-16T09:50:49.498Z,8.6
2022-11-16T09:55:49.461Z,8.6
2022-11-16T10:00:49.526Z,8.6
2022-11-16T10:05:49.475Z,8.6
2022-11-16T10:10:49.459Z,8.6
2022-11-16T10:15:49.452Z,8.6
2022-11-16T10:20:49.609Z,8.6
2022-11-16T10:25:49.475Z,8.6
2022-11-16T10:30:49.506Z,8.6
2022-11-16T10:35:49.485Z,8.6
2022-11-16T10:40:49.577Z,8.6
2022-11-16T10:45:49.474Z,8.6
2022-11-16T10:50:49.468Z,8.6
2022-11-16T10:55:49.528Z,8.6
2022-11-16T11:00:49.623Z,8.6
2022-11-16T11:05:49.455Z,8.6
2022-11-16T11:10:49.451Z,8.6
2022-11-16T11:15:49.450Z,8.6
2022-11-16T11:20:49.579Z,8.6
2022-11-16T11:25:49.532Z,8.6
2022-11-16T11:30:49.640Z,8.6
2022-11-16T11:35:49.464Z,8.6
2022-11-16T11:40:49.479Z,8.6
2022-11-16T11:45:49.473Z,8.6
2022-11-16T11:50:49.455Z,8.6
2022-11-16T11:55:49.486Z,8.6
2022-11-16T12:00:49.533Z,8.6
2022-11-16T12:05:49.448Z,8.6
2022-11-16T12:10:49.442Z,8.6
2022-11-16T12:15:49.436Z,8.6
2022-11-16T12:20:49.458Z,8.6
2022-11-16T12:25:49.433Z,8.6
2022-11-16T12:30:49.445Z,8.6
2022-11-16T12:35:49.446Z,8.6
2022-11-16T12:40:49.579Z,8.6
2022-11-16T12:45:49.444Z,8.6
2022-11-16T12:50:49.450Z,8.6
2022-11-16T12:55:49.442Z,8.6
2022-11-16T13:00:49.593Z,8.6
2022-11-16T13:05:49.439Z,8.6
2022-11-16T13:10:49.435Z,8.6
2022-11-16T13:15:49.433Z,8.6
2022-11-16T13:20:49.557Z,8.6
2022-11-16T13:25:49.445Z,8.6
2022-11-16T13:30:49.439Z,8.5
2022-11-16T13:35:49.444Z,8.5
2022-11-16T13:40:49.816Z,8.6
2022-11-16T13:45:49.469Z,8.6
2022-11-16T13:50:49.488Z,8.6
2022-11-16T13:55:49.425Z,8.5
2022-11-16T14:00:49.522Z,8.5
2022-11-16T14:05:49.429Z,8.6
2022-11-16T14:10:49.423Z,8.6
2022-11-16T14:15:49.452Z,8.6
2022-11-16T14:20:49.452Z,8.6
2022-11-16T14:25:49.424Z,8.6
2022-11-16T14:30:49.420Z,8.6
2022-11-16T14:35:49.419Z,8.6
2022-11-16T14:40:49.449Z,8.6
2022-11-16T14:45:49.675Z,8.6
2022-11-16T14:50:49.408Z,8.6
2022-11-16T14:55:49.419Z,8.6
2022-11-16T15:00:49.543Z,8.6
2022-11-16T15:05:49.426Z,8.6
2022-11-16T15:10:52.301Z,8.6
2022-11-16T15:15:49.414Z,8.6
2022-11-16T15:20:49.442Z,8.6
2022-11-16T15:25:49.413Z,8.6
2022-11-16T15:30:49.418Z,8.6
2022-11-16T15:35:49.414Z,8.6
2022-11-16T15:40:49.532Z,8.6
2022-11-16T15:45:49.400Z,8.6
2022-11-16T15:50:49.395Z,8.6
2022-11-16T15:55:49.586Z,8.6
2022-11-16T16:00:49.534Z,8.6
2022-11-16T16:05:49.398Z,8.6
2022-11-16T16:10:49.402Z,8.6
2022-11-16T16:15:49.449Z,8.6
2022-11-16T16:20:49.568Z,8.6
2022-11-16T16:25:50.624Z,8.6
2022-11-16T16:30:49.385Z,8.6
2022-11-16T16:35:49.471Z,8.6
2022-11-16T16:40:49.640Z,8.6
2022-11-16T16:45:49.385Z,8.6
2022-11-16T16:50:49.398Z,8.6
2022-11-16T16:55:49.391Z,8.6
2022-11-16T17:00:49.490Z,8.6
2022-11-16T17:05:49.473Z,8.6
2022-11-16T17:10:49.394Z,8.6
2022-11-16T17:15:49.442Z,8.6
2022-11-16T17:20:49.430Z,8.6
2022-11-16T17:25:49.656Z,8.6
2022-11-16T17:30:49.454Z,8.6
2022-11-16T17:35:49.533Z,8.6
2022-11-16T17:40:49.513Z,8.6
2022-11-16T17:45:49.392Z,8.6
2022-11-16T17:50:49.445Z,8.6
2022-11-16T17:55:49.389Z,8.6
2022-11-16T18:00:49.423Z,8.6
2022-11-16T18:05:49.388Z,8.6
2022-11-16T18:10:49.419Z,8.5
2022-11-16T18:15:49.400Z,8.5
2022-11-16T18:20:49.524Z,8.5
2022-11-16T18:25:49.358Z,8.5
2022-11-16T18:30:49.368Z,8.5
2022-11-16T18:35:49.379Z,8.5
2022-11-16T18:40:49.518Z,8.5
2022-11-16T18:45:49.352Z,8.5
2022-11-16T18:50:49.355Z,8.5
2022-11-16T18:55:49.592Z,8.5
2022-11-16T19:00:49.444Z,8.5
2022-11-16T19:05:49.383Z,8.5
2022-11-16T19:10:49.360Z,8.5
2022-11-16T19:15:49.347Z,8.5
2022-11-16T19:20:49.457Z,8.5
2022-11-16T19:25:49.368Z,8.5
2022-11-16T19:30:49.477Z,8.5
2022-11-16T19:35:49.575Z,8.4
2022-11-16T19:40:49.564Z,8.4
2022-11-16T19:45:49.424Z,8.4
2022-11-16T19:50:49.437Z,8.4
2022-11-16T19:55:49.477Z,8.4
2022-11-16T20:00:49.550Z,8.4
2022-11-16T20:05:49.430Z,8.4
2022-11-16T20:10:49.502Z,8.4
2022-11-16T20:15:49.414Z,8.4
2022-11-16T20:20:49.790Z,8.4
2022-11-16T20:25:49.477Z,8.4
2022-11-16T20:30:49.605Z,8.4
2022-11-16T20:35:49.484Z,8.3
2022-11-16T20:40:49.508Z,8.3
2022-11-16T20:45:49.449Z,8.3
2022-11-16T20:50:49.467Z,8.3
2022-11-16T20:55:49.492Z,8.3
2022-11-16T21:00:49.744Z,8.3
2022-11-16T21:05:49.488Z,8.3
2022-11-16T21:10:49.495Z,8.3
2022-11-16T21:15:49.479Z,8.2
2022-11-16T21:20:49.606Z,8.2
2022-11-16T21:25:49.485Z,8.2
2022-11-16T21:30:50.756Z,8.2
2022-11-16T21:35:49.499Z,8.1
2022-11-16T21:40:49.479Z,8.1
2022-11-16T21:45:49.497Z,8.1
2022-11-16T21:50:49.479Z,8.1
2022-11-16T21:55:49.793Z,8.1
2022-11-16T22:00:49.772Z,8
2022-11-16T22:05:49.660Z,8
2022-11-16T22:10:49.652Z,8
2022-11-16T22:15:49.641Z,7.9
2022-11-16T22:20:49.798Z,7.9
2022-11-16T22:25:49.625Z,7.9
2022-11-16T22:30:51.870Z,7.9
2022-11-16T22:35:49.779Z,7.9
2022-11-16T22:40:49.917Z,7.8
2022-11-16T22:45:49.785Z,7.8
2022-11-16T22:50:49.799Z,7.8
2022-11-16T22:55:49.819Z,7.8
2022-11-16T23:00:50.264Z,7.8
2022-11-16T23:05:50.030Z,7.7
2022-11-16T23:10:50.684Z,7.7
2022-11-16T23:15:50.028Z,7.6
2022-11-16T23:20:50.161Z,7.6
2022-11-16T23:25:50.033Z,7.6
2022-11-16T23:30:50.069Z,7.6
2022-11-16T23:35:50.075Z,7.5
2022-11-16T23:40:50.542Z,7.5
2022-11-16T23:45:50.051Z,7.4
2022-11-16T23:50:50.211Z,7.4
2022-11-16T23:55:55.273Z,7.4
